sensor_id;sensor_type;location;lat;lon;timestamp;P1;durP1;ratioP1;P2;durP2;ratioP2
48514;SDS011;34309;47.260;2.796;2023-03-01T00:01:27;2.33;;;2.13;;
48514;SDS011;34309;47.260;2.796;2023-03-01T00:04:02;1.73;;;1.33;;
48514;SDS011;34309;47.260;2.796;2023-03-01T00:06:37;1.63;;;1.53;;
48514;SDS011;34309;47.260;2.796;2023-03-01T00:09:11;1.50;;;1.40;;
48514;SDS011;34309;47.260;2.796;2023-03-01T00:11:46;1.93;;;1.83;;
48514;SDS011;34309;47.260;2.796;2023-03-01T00:14:21;2.20;;;2.10;;
48514;SDS011;34309;47.260;2.796;2023-03-01T00:16:55;1.93;;;1.80;;
48514;SDS011;34309;47.260;2.796;2023-03-01T00:19:28;1.47;;;1.37;;
48514;SDS011;34309;47.260;2.796;2023-03-01T00:22:05;1.57;;;1.47;;
48514;SDS011;34309;47.260;2.796;2023-03-01T00:24:38;4.17;;;2.77;;
48514;SDS011;34309;47.260;2.796;2023-03-01T00:27:12;2.40;;;1.57;;
48514;SDS011;34309;47.260;2.796;2023-03-01T00:29:46;2.20;;;2.10;;
48514;SDS011;34309;47.260;2.796;2023-03-01T00:32:19;1.77;;;1.67;;
48514;SDS011;34309;47.260;2.796;2023-03-01T00:34:53;1.90;;;1.73;;
48514;SDS011;34309;47.260;2.796;2023-03-01T00:37:28;1.57;;;1.37;;
48514;SDS011;34309;47.260;2.796;2023-03-01T00:40:02;1.80;;;1.70;;
48514;SDS011;34309;47.260;2.796;2023-03-01T00:42:37;1.87;;;1.77;;
48514;SDS011;34309;47.260;2.796;2023-03-01T00:45:12;1.50;;;1.40;;
48514;SDS011;34309;47.260;2.796;2023-03-01T00:47:46;3.60;;;2.20;;
48514;SDS011;34309;47.260;2.796;2023-03-01T00:50:21;1.60;;;1.50;;
48514;SDS011;34309;47.260;2.796;2023-03-01T00:52:56;1.60;;;1.50;;
48514;SDS011;34309;47.260;2.796;2023-03-01T00:55:30;1.60;;;1.50;;
48514;SDS011;34309;47.260;2.796;2023-03-01T00:58:04;1.63;;;1.53;;
48514;SDS011;34309;47.260;2.796;2023-03-01T01:00:37;1.73;;;1.70;;
48514;SDS011;34309;47.260;2.796;2023-03-01T01:03:12;1.53;;;1.50;;
48514;SDS011;34309;47.260;2.796;2023-03-01T01:05:45;1.73;;;1.70;;
48514;SDS011;34309;47.260;2.796;2023-03-01T01:08:21;1.60;;;1.50;;
48514;SDS011;34309;47.260;2.796;2023-03-01T01:10:55;1.93;;;1.83;;
48514;SDS011;34309;47.260;2.796;2023-03-01T01:13:28;1.93;;;1.83;;
48514;SDS011;34309;47.260;2.796;2023-03-01T01:16:02;1.80;;;1.70;;
48514;SDS011;34309;47.260;2.796;2023-03-01T01:18:36;6.10;;;2.13;;
48514;SDS011;34309;47.260;2.796;2023-03-01T01:21:11;1.93;;;1.80;;
48514;SDS011;34309;47.260;2.796;2023-03-01T01:23:48;3.07;;;2.03;;
48514;SDS011;34309;47.260;2.796;2023-03-01T01:26:23;2.43;;;2.23;;
48514;SDS011;34309;47.260;2.796;2023-03-01T01:28:58;1.77;;;1.67;;
48514;SDS011;34309;47.260;2.796;2023-03-01T01:31:33;1.87;;;1.77;;
48514;SDS011;34309;47.260;2.796;2023-03-01T01:34:07;2.23;;;2.13;;
48514;SDS011;34309;47.260;2.796;2023-03-01T01:36:47;1.40;;;1.40;;
48514;SDS011;34309;47.260;2.796;2023-03-01T01:39:23;2.00;;;1.90;;
48514;SDS011;34309;47.260;2.796;2023-03-01T01:41:57;2.27;;;2.07;;
48514;SDS011;34309;47.260;2.796;2023-03-01T01:44:30;2.00;;;1.90;;
48514;SDS011;34309;47.260;2.796;2023-03-01T01:47:06;1.80;;;1.70;;
48514;SDS011;34309;47.260;2.796;2023-03-01T01:49:46;1.70;;;1.60;;
48514;SDS011;34309;47.260;2.796;2023-03-01T01:52:23;2.17;;;2.07;;
48514;SDS011;34309;47.260;2.796;2023-03-01T01:55:02;2.13;;;2.00;;
48514;SDS011;34309;47.260;2.796;2023-03-01T01:57:41;1.70;;;1.60;;
48514;SDS011;34309;47.260;2.796;2023-03-01T02:00:19;1.80;;;1.73;;
48514;SDS011;34309;47.260;2.796;2023-03-01T02:02:55;1.50;;;1.40;;
48514;SDS011;34309;47.260;2.796;2023-03-01T02:05:33;1.43;;;1.33;;
48514;SDS011;34309;47.260;2.796;2023-03-01T02:08:11;2.00;;;1.90;;
48514;SDS011;34309;47.260;2.796;2023-03-01T02:10:49;2.07;;;1.90;;
48514;SDS011;34309;47.260;2.796;2023-03-01T02:13:24;1.73;;;1.63;;
48514;SDS011;34309;47.260;2.796;2023-03-01T02:15:59;2.07;;;1.87;;
48514;SDS011;34309;47.260;2.796;2023-03-01T02:18:35;2.10;;;2.00;;
48514;SDS011;34309;47.260;2.796;2023-03-01T02:21:13;1.73;;;1.63;;
48514;SDS011;34309;47.260;2.796;2023-03-01T02:24:04;2.40;;;2.27;;
48514;SDS011;34309;47.260;2.796;2023-03-01T02:26:50;1.83;;;1.73;;
48514;SDS011;34309;47.260;2.796;2023-03-01T02:29:28;1.80;;;1.70;;
48514;SDS011;34309;47.260;2.796;2023-03-01T02:32:02;1.47;;;1.47;;
48514;SDS011;34309;47.260;2.796;2023-03-01T02:34:37;1.80;;;1.70;;
48514;SDS011;34309;47.260;2.796;2023-03-01T02:37:13;1.77;;;1.67;;
48514;SDS011;34309;47.260;2.796;2023-03-01T02:39:53;1.60;;;1.50;;
48514;SDS011;34309;47.260;2.796;2023-03-01T02:42:31;1.73;;;1.63;;
48514;SDS011;34309;47.260;2.796;2023-03-01T02:45:10;2.50;;;2.20;;
48514;SDS011;34309;47.260;2.796;2023-03-01T02:47:44;1.70;;;1.60;;
48514;SDS011;34309;47.260;2.796;2023-03-01T02:50:27;2.00;;;1.90;;
48514;SDS011;34309;47.260;2.796;2023-03-01T02:53:19;1.70;;;1.70;;
48514;SDS011;34309;47.260;2.796;2023-03-01T02:56:00;3.03;;;2.03;;
48514;SDS011;34309;47.260;2.796;2023-03-01T02:58:34;2.40;;;2.20;;
48514;SDS011;34309;47.260;2.796;2023-03-01T03:01:17;2.50;;;2.40;;
48514;SDS011;34309;47.260;2.796;2023-03-01T03:03:51;3.53;;;2.50;;
48514;SDS011;34309;47.260;2.796;2023-03-01T03:06:25;3.40;;;2.20;;
48514;SDS011;34309;47.260;2.796;2023-03-01T03:08:59;1.80;;;1.70;;
48514;SDS011;34309;47.260;2.796;2023-03-01T03:11:33;1.93;;;1.83;;
48514;SDS011;34309;47.260;2.796;2023-03-01T03:14:08;3.57;;;2.27;;
48514;SDS011;34309;47.260;2.796;2023-03-01T03:16:46;1.70;;;1.60;;
48514;SDS011;34309;47.260;2.796;2023-03-01T03:19:21;1.70;;;1.60;;
48514;SDS011;34309;47.260;2.796;2023-03-01T03:21:55;3.23;;;1.90;;
48514;SDS011;34309;47.260;2.796;2023-03-01T03:24:28;2.20;;;2.10;;
48514;SDS011;34309;47.260;2.796;2023-03-01T03:27:09;4.70;;;1.93;;
48514;SDS011;34309;47.260;2.796;2023-03-01T03:29:42;1.97;;;1.87;;
48514;SDS011;34309;47.260;2.796;2023-03-01T03:32:17;1.60;;;1.50;;
48514;SDS011;34309;47.260;2.796;2023-03-01T03:34:51;1.83;;;1.73;;
48514;SDS011;34309;47.260;2.796;2023-03-01T03:37:24;2.37;;;2.17;;
48514;SDS011;34309;47.260;2.796;2023-03-01T03:40:16;2.30;;;2.20;;
48514;SDS011;34309;47.260;2.796;2023-03-01T03:42:49;2.53;;;2.20;;
48514;SDS011;34309;47.260;2.796;2023-03-01T03:45:23;2.07;;;1.97;;
48514;SDS011;34309;47.260;2.796;2023-03-01T03:47:58;2.00;;;1.90;;
48514;SDS011;34309;47.260;2.796;2023-03-01T03:50:33;2.73;;;2.20;;
48514;SDS011;34309;47.260;2.796;2023-03-01T03:53:07;1.60;;;1.50;;
48514;SDS011;34309;47.260;2.796;2023-03-01T03:55:42;2.00;;;1.80;;
48514;SDS011;34309;47.260;2.796;2023-03-01T03:58:17;1.67;;;1.67;;
48514;SDS011;34309;47.260;2.796;2023-03-01T04:00:52;2.67;;;2.47;;
48514;SDS011;34309;47.260;2.796;2023-03-01T04:03:30;1.73;;;1.63;;
48514;SDS011;34309;47.260;2.796;2023-03-01T04:06:04;1.93;;;1.67;;
48514;SDS011;34309;47.260;2.796;2023-03-01T04:08:39;2.93;;;1.97;;
48514;SDS011;34309;47.260;2.796;2023-03-01T04:11:13;2.40;;;2.13;;
48514;SDS011;34309;47.260;2.796;2023-03-01T04:13:59;1.60;;;1.50;;
48514;SDS011;34309;47.260;2.796;2023-03-01T04:16:32;1.93;;;1.83;;
48514;SDS011;34309;47.260;2.796;2023-03-01T04:19:07;2.80;;;1.50;;
48514;SDS011;34309;47.260;2.796;2023-03-01T04:21:41;3.53;;;2.10;;
48514;SDS011;34309;47.260;2.796;2023-03-01T04:24:14;2.23;;;2.13;;
48514;SDS011;34309;47.260;2.796;2023-03-01T04:26:48;2.87;;;2.67;;
48514;SDS011;34309;47.260;2.796;2023-03-01T04:29:22;2.53;;;2.33;;
48514;SDS011;34309;47.260;2.796;2023-03-01T04:31:55;2.67;;;2.43;;
48514;SDS011;34309;47.260;2.796;2023-03-01T04:34:31;1.77;;;1.67;;
48514;SDS011;34309;47.260;2.796;2023-03-01T04:37:05;2.03;;;1.87;;
48514;SDS011;34309;47.260;2.796;2023-03-01T04:39:40;2.73;;;2.27;;
48514;SDS011;34309;47.260;2.796;2023-03-01T04:42:17;2.37;;;2.20;;
48514;SDS011;34309;47.260;2.796;2023-03-01T04:44:51;2.37;;;2.17;;
48514;SDS011;34309;47.260;2.796;2023-03-01T04:47:25;2.20;;;2.10;;
48514;SDS011;34309;47.260;2.796;2023-03-01T04:50:00;4.10;;;2.93;;
48514;SDS011;34309;47.260;2.796;2023-03-01T04:52:33;1.97;;;1.87;;
48514;SDS011;34309;47.260;2.796;2023-03-01T04:55:02;2.37;;;2.23;;
48514;SDS011;34309;47.260;2.796;2023-03-01T04:57:36;2.70;;;2.33;;
48514;SDS011;34309;47.260;2.796;2023-03-01T05:00:11;2.07;;;1.97;;
48514;SDS011;34309;47.260;2.796;2023-03-01T05:02:53;3.60;;;2.30;;
48514;SDS011;34309;47.260;2.796;2023-03-01T05:05:30;2.20;;;2.10;;
48514;SDS011;34309;47.260;2.796;2023-03-01T05:08:06;2.67;;;2.47;;
48514;SDS011;34309;47.260;2.796;2023-03-01T05:10:40;3.57;;;2.30;;
48514;SDS011;34309;47.260;2.796;2023-03-01T05:13:14;2.17;;;2.07;;
48514;SDS011;34309;47.260;2.796;2023-03-01T05:15:54;2.40;;;2.30;;
48514;SDS011;34309;47.260;2.796;2023-03-01T05:18:29;3.67;;;2.40;;
48514;SDS011;34309;47.260;2.796;2023-03-01T05:21:06;3.03;;;2.30;;
48514;SDS011;34309;47.260;2.796;2023-03-01T05:23:41;1.97;;;1.87;;
48514;SDS011;34309;47.260;2.796;2023-03-01T05:26:15;7.60;;;1.80;;
48514;SDS011;34309;47.260;2.796;2023-03-01T05:28:50;2.03;;;1.93;;
48514;SDS011;34309;47.260;2.796;2023-03-01T05:31:28;4.00;;;2.20;;
48514;SDS011;34309;47.260;2.796;2023-03-01T05:34:02;2.47;;;1.90;;
48514;SDS011;34309;47.260;2.796;2023-03-01T05:36:37;3.53;;;2.70;;
48514;SDS011;34309;47.260;2.796;2023-03-01T05:39:11;3.07;;;2.40;;
48514;SDS011;34309;47.260;2.796;2023-03-01T05:41:44;2.60;;;2.40;;
48514;SDS011;34309;47.260;2.796;2023-03-01T05:44:18;2.20;;;2.03;;
48514;SDS011;34309;47.260;2.796;2023-03-01T05:46:52;2.73;;;2.53;;
48514;SDS011;34309;47.260;2.796;2023-03-01T05:49:25;2.30;;;2.20;;
48514;SDS011;34309;47.260;2.796;2023-03-01T05:52:01;2.20;;;1.90;;
48514;SDS011;34309;47.260;2.796;2023-03-01T05:54:34;2.37;;;2.17;;
48514;SDS011;34309;47.260;2.796;2023-03-01T05:57:08;2.40;;;2.20;;
48514;SDS011;34309;47.260;2.796;2023-03-01T05:59:42;2.93;;;2.23;;
48514;SDS011;34309;47.260;2.796;2023-03-01T06:02:16;1.70;;;1.60;;
48514;SDS011;34309;47.260;2.796;2023-03-01T06:04:50;2.30;;;2.20;;
48514;SDS011;34309;47.260;2.796;2023-03-01T06:07:25;2.40;;;2.20;;
48514;SDS011;34309;47.260;2.796;2023-03-01T06:09:59;2.57;;;2.37;;
48514;SDS011;34309;47.260;2.796;2023-03-01T06:12:32;2.00;;;1.90;;
48514;SDS011;34309;47.260;2.796;2023-03-01T06:15:07;2.23;;;2.13;;
48514;SDS011;34309;47.260;2.796;2023-03-01T06:17:43;2.73;;;2.07;;
48514;SDS011;34309;47.260;2.796;2023-03-01T06:20:19;2.43;;;2.23;;
48514;SDS011;34309;47.260;2.796;2023-03-01T06:22:56;2.57;;;2.00;;
48514;SDS011;34309;47.260;2.796;2023-03-01T06:25:31;2.23;;;2.03;;
48514;SDS011;34309;47.260;2.796;2023-03-01T06:28:05;2.27;;;2.07;;
48514;SDS011;34309;47.260;2.796;2023-03-01T06:30:38;2.00;;;1.90;;
48514;SDS011;34309;47.260;2.796;2023-03-01T06:33:12;2.13;;;2.03;;
48514;SDS011;34309;47.260;2.796;2023-03-01T06:35:46;7.83;;;2.20;;
48514;SDS011;34309;47.260;2.796;2023-03-01T06:38:21;2.47;;;2.30;;
48514;SDS011;34309;47.260;2.796;2023-03-01T06:40:55;2.13;;;1.90;;
48514;SDS011;34309;47.260;2.796;2023-03-01T06:43:29;2.23;;;2.03;;
48514;SDS011;34309;47.260;2.796;2023-03-01T06:46:03;2.40;;;2.20;;
48514;SDS011;34309;47.260;2.796;2023-03-01T06:48:38;2.67;;;2.13;;
48514;SDS011;34309;47.260;2.796;2023-03-01T06:51:11;2.03;;;1.83;;
48514;SDS011;34309;47.260;2.796;2023-03-01T06:53:47;2.27;;;2.07;;
48514;SDS011;34309;47.260;2.796;2023-03-01T06:56:20;1.80;;;1.70;;
48514;SDS011;34309;47.260;2.796;2023-03-01T06:58:54;2.97;;;2.77;;
48514;SDS011;34309;47.260;2.796;2023-03-01T07:01:28;2.60;;;2.40;;
48514;SDS011;34309;47.260;2.796;2023-03-01T07:04:02;2.23;;;2.13;;
48514;SDS011;34309;47.260;2.796;2023-03-01T07:06:36;1.93;;;1.83;;
48514;SDS011;34309;47.260;2.796;2023-03-01T07:09:11;2.17;;;2.07;;
48514;SDS011;34309;47.260;2.796;2023-03-01T07:11:45;1.73;;;1.63;;
48514;SDS011;34309;47.260;2.796;2023-03-01T07:14:18;2.27;;;1.70;;
48514;SDS011;34309;47.260;2.796;2023-03-01T07:16:52;2.00;;;1.90;;
48514;SDS011;34309;47.260;2.796;2023-03-01T07:19:26;2.50;;;2.30;;
48514;SDS011;34309;47.260;2.796;2023-03-01T07:22:00;4.87;;;2.33;;
48514;SDS011;34309;47.260;2.796;2023-03-01T07:24:37;2.20;;;1.83;;
48514;SDS011;34309;47.260;2.796;2023-03-01T07:27:10;2.23;;;2.03;;
48514;SDS011;34309;47.260;2.796;2023-03-01T07:29:44;3.23;;;2.43;;
48514;SDS011;34309;47.260;2.796;2023-03-01T07:32:18;2.00;;;1.90;;
48514;SDS011;34309;47.260;2.796;2023-03-01T07:34:51;1.93;;;1.83;;
48514;SDS011;34309;47.260;2.796;2023-03-01T07:37:25;4.07;;;2.33;;
48514;SDS011;34309;47.260;2.796;2023-03-01T07:40:00;4.97;;;1.67;;
48514;SDS011;34309;47.260;2.796;2023-03-01T07:42:36;2.37;;;2.23;;
48514;SDS011;34309;47.260;2.796;2023-03-01T07:45:10;1.97;;;1.80;;
48514;SDS011;34309;47.260;2.796;2023-03-01T07:47:44;1.70;;;1.60;;
48514;SDS011;34309;47.260;2.796;2023-03-01T07:50:18;1.83;;;1.73;;
48514;SDS011;34309;47.260;2.796;2023-03-01T07:52:52;2.03;;;1.93;;
48514;SDS011;34309;47.260;2.796;2023-03-01T07:55:27;2.07;;;1.97;;
48514;SDS011;34309;47.260;2.796;2023-03-01T07:58:01;2.10;;;1.63;;
48514;SDS011;34309;47.260;2.796;2023-03-01T08:00:35;2.13;;;2.03;;
48514;SDS011;34309;47.260;2.796;2023-03-01T08:03:09;1.73;;;1.63;;
48514;SDS011;34309;47.260;2.796;2023-03-01T08:05:43;2.13;;;1.83;;
48514;SDS011;34309;47.260;2.796;2023-03-01T08:08:17;2.50;;;2.30;;
48514;SDS011;34309;47.260;2.796;2023-03-01T08:10:52;2.37;;;2.17;;
48514;SDS011;34309;47.260;2.796;2023-03-01T08:13:28;2.53;;;2.30;;
48514;SDS011;34309;47.260;2.796;2023-03-01T08:16:03;2.93;;;2.63;;
48514;SDS011;34309;47.260;2.796;2023-03-01T08:18:37;1.90;;;1.80;;
48514;SDS011;34309;47.260;2.796;2023-03-01T08:21:12;2.53;;;2.33;;
48514;SDS011;34309;47.260;2.796;2023-03-01T08:23:47;1.83;;;1.73;;
48514;SDS011;34309;47.260;2.796;2023-03-01T08:26:23;2.13;;;2.03;;
48514;SDS011;34309;47.260;2.796;2023-03-01T08:28:57;2.23;;;2.07;;
48514;SDS011;34309;47.260;2.796;2023-03-01T08:31:31;2.40;;;2.20;;
48514;SDS011;34309;47.260;2.796;2023-03-01T08:34:09;2.13;;;1.93;;
48514;SDS011;34309;47.260;2.796;2023-03-01T08:36:45;1.70;;;1.60;;
48514;SDS011;34309;47.260;2.796;2023-03-01T08:39:19;2.47;;;2.23;;
48514;SDS011;34309;47.260;2.796;2023-03-01T08:41:55;2.37;;;2.03;;
48514;SDS011;34309;47.260;2.796;2023-03-01T08:44:29;2.33;;;2.13;;
48514;SDS011;34309;47.260;2.796;2023-03-01T08:47:03;3.20;;;2.43;;
48514;SDS011;34309;47.260;2.796;2023-03-01T08:49:37;2.13;;;1.90;;
48514;SDS011;34309;47.260;2.796;2023-03-01T08:52:10;2.33;;;2.13;;
48514;SDS011;34309;47.260;2.796;2023-03-01T08:54:44;2.20;;;2.10;;
48514;SDS011;34309;47.260;2.796;2023-03-01T08:57:19;2.00;;;1.80;;
48514;SDS011;34309;47.260;2.796;2023-03-01T08:59:52;2.90;;;2.33;;
48514;SDS011;34309;47.260;2.796;2023-03-01T09:02:27;2.00;;;1.90;;
48514;SDS011;34309;47.260;2.796;2023-03-01T09:05:01;2.00;;;1.90;;
48514;SDS011;34309;47.260;2.796;2023-03-01T09:07:35;2.37;;;2.17;;
48514;SDS011;34309;47.260;2.796;2023-03-01T09:10:09;2.57;;;2.37;;
48514;SDS011;34309;47.260;2.796;2023-03-01T09:12:44;3.53;;;2.17;;
48514;SDS011;34309;47.260;2.796;2023-03-01T09:15:18;1.90;;;1.80;;
48514;SDS011;34309;47.260;2.796;2023-03-01T09:17:52;2.77;;;2.50;;
48514;SDS011;34309;47.260;2.796;2023-03-01T09:20:26;2.17;;;2.03;;
48514;SDS011;34309;47.260;2.796;2023-03-01T09:23:00;1.67;;;1.67;;
48514;SDS011;34309;47.260;2.796;2023-03-01T09:25:34;2.27;;;2.07;;
48514;SDS011;34309;47.260;2.796;2023-03-01T09:28:10;2.93;;;2.47;;
48514;SDS011;34309;47.260;2.796;2023-03-01T09:30:43;1.90;;;1.80;;
48514;SDS011;34309;47.260;2.796;2023-03-01T09:33:17;3.87;;;2.40;;
48514;SDS011;34309;47.260;2.796;2023-03-01T09:35:55;7.50;;;3.10;;
48514;SDS011;34309;47.260;2.796;2023-03-01T09:38:29;2.00;;;1.90;;
48514;SDS011;34309;47.260;2.796;2023-03-01T09:41:08;2.70;;;2.50;;
48514;SDS011;34309;47.260;2.796;2023-03-01T09:43:45;3.77;;;2.27;;
48514;SDS011;34309;47.260;2.796;2023-03-01T09:46:25;2.87;;;2.60;;
48514;SDS011;34309;47.260;2.796;2023-03-01T09:49:01;9.80;;;4.33;;
48514;SDS011;34309;47.260;2.796;2023-03-01T09:51:39;6.23;;;3.93;;
48514;SDS011;34309;47.260;2.796;2023-03-01T09:54:14;5.33;;;4.83;;
48514;SDS011;34309;47.260;2.796;2023-03-01T09:56:52;4.20;;;3.57;;
48514;SDS011;34309;47.260;2.796;2023-03-01T09:59:40;5.17;;;4.50;;
48514;SDS011;34309;47.260;2.796;2023-03-01T10:02:27;9.30;;;7.43;;
48514;SDS011;34309;47.260;2.796;2023-03-01T10:05:11;10.20;;;7.57;;
48514;SDS011;34309;47.260;2.796;2023-03-01T10:07:59;11.50;;;7.90;;
48514;SDS011;34309;47.260;2.796;2023-03-01T10:10:42;12.33;;;7.23;;
48514;SDS011;34309;47.260;2.796;2023-03-01T10:13:19;8.27;;;5.33;;
48514;SDS011;34309;47.260;2.796;2023-03-01T10:15:59;13.57;;;7.43;;
48514;SDS011;34309;47.260;2.796;2023-03-01T10:18:38;10.83;;;7.70;;
48514;SDS011;34309;47.260;2.796;2023-03-01T10:21:14;8.07;;;6.60;;
48514;SDS011;34309;47.260;2.796;2023-03-01T10:23:50;7.57;;;6.20;;
48514;SDS011;34309;47.260;2.796;2023-03-01T10:26:29;11.63;;;6.13;;
48514;SDS011;34309;47.260;2.796;2023-03-01T10:29:12;9.27;;;6.57;;
48514;SDS011;34309;47.260;2.796;2023-03-01T10:31:48;8.17;;;7.37;;
48514;SDS011;34309;47.260;2.796;2023-03-01T10:34:27;9.90;;;5.70;;
48514;SDS011;34309;47.260;2.796;2023-03-01T10:37:08;8.97;;;6.30;;
48514;SDS011;34309;47.260;2.796;2023-03-01T10:39:57;11.57;;;8.43;;
48514;SDS011;34309;47.260;2.796;2023-03-01T10:42:32;11.33;;;7.70;;
48514;SDS011;34309;47.260;2.796;2023-03-01T10:45:14;10.93;;;7.30;;
48514;SDS011;34309;47.260;2.796;2023-03-01T10:47:55;11.03;;;8.60;;
48514;SDS011;34309;47.260;2.796;2023-03-01T10:50:37;16.50;;;8.77;;
48514;SDS011;34309;47.260;2.796;2023-03-01T10:56:06;10.90;;;9.10;;
48514;SDS011;34309;47.260;2.796;2023-03-01T10:58:56;11.37;;;9.10;;
48514;SDS011;34309;47.260;2.796;2023-03-01T11:01:32;13.20;;;8.83;;
48514;SDS011;34309;47.260;2.796;2023-03-01T11:04:13;12.70;;;8.57;;
48514;SDS011;34309;47.260;2.796;2023-03-01T11:06:48;8.20;;;7.27;;
48514;SDS011;34309;47.260;2.796;2023-03-01T11:09:33;16.30;;;9.10;;
48514;SDS011;34309;47.260;2.796;2023-03-01T11:12:13;9.37;;;8.27;;
48514;SDS011;34309;47.260;2.796;2023-03-01T11:14:48;12.33;;;8.17;;
48514;SDS011;34309;47.260;2.796;2023-03-01T11:17:26;12.03;;;9.43;;
48514;SDS011;34309;47.260;2.796;2023-03-01T11:20:06;10.70;;;7.93;;
48514;SDS011;34309;47.260;2.796;2023-03-01T11:22:52;12.13;;;7.73;;
48514;SDS011;34309;47.260;2.796;2023-03-01T11:25:29;13.37;;;9.00;;
48514;SDS011;34309;47.260;2.796;2023-03-01T11:28:07;9.43;;;7.20;;
48514;SDS011;34309;47.260;2.796;2023-03-01T11:30:47;14.17;;;10.47;;
48514;SDS011;34309;47.260;2.796;2023-03-01T11:33:30;11.70;;;9.00;;
48514;SDS011;34309;47.260;2.796;2023-03-01T11:36:16;17.20;;;8.47;;
48514;SDS011;34309;47.260;2.796;2023-03-01T11:38:53;11.77;;;9.77;;
48514;SDS011;34309;47.260;2.796;2023-03-01T11:41:30;12.63;;;9.80;;
48514;SDS011;34309;47.260;2.796;2023-03-01T11:44:10;8.90;;;7.97;;
48514;SDS011;34309;47.260;2.796;2023-03-01T11:47:08;15.33;;;8.27;;
48514;SDS011;34309;47.260;2.796;2023-03-01T11:50:00;11.50;;;7.73;;
48514;SDS011;34309;47.260;2.796;2023-03-01T11:52:54;9.80;;;7.37;;
48514;SDS011;34309;47.260;2.796;2023-03-01T11:55:43;15.10;;;8.07;;
48514;SDS011;34309;47.260;2.796;2023-03-01T11:58:38;8.80;;;6.80;;
48514;SDS011;34309;47.260;2.796;2023-03-01T12:01:49;8.37;;;7.50;;
48514;SDS011;34309;47.260;2.796;2023-03-01T12:04:59;17.03;;;8.23;;
48514;SDS011;34309;47.260;2.796;2023-03-01T12:07:49;11.70;;;8.20;;
48514;SDS011;34309;47.260;2.796;2023-03-01T12:10:35;15.13;;;8.80;;
48514;SDS011;34309;47.260;2.796;2023-03-01T12:19:38;9.97;;;7.77;;
48514;SDS011;34309;47.260;2.796;2023-03-01T12:22:29;12.07;;;8.60;;
48514;SDS011;34309;47.260;2.796;2023-03-01T12:28:02;9.80;;;6.60;;
48514;SDS011;34309;47.260;2.796;2023-03-01T12:30:51;7.00;;;6.30;;
48514;SDS011;34309;47.260;2.796;2023-03-01T12:33:40;11.23;;;7.83;;
48514;SDS011;34309;47.260;2.796;2023-03-01T12:36:29;6.50;;;5.87;;
48514;SDS011;34309;47.260;2.796;2023-03-01T12:39:24;6.13;;;5.50;;
48514;SDS011;34309;47.260;2.796;2023-03-01T12:42:13;10.07;;;7.73;;
48514;SDS011;34309;47.260;2.796;2023-03-01T12:45:01;7.13;;;6.30;;
48514;SDS011;34309;47.260;2.796;2023-03-01T12:47:56;7.50;;;6.87;;
48514;SDS011;34309;47.260;2.796;2023-03-01T12:50:40;6.43;;;5.57;;
48514;SDS011;34309;47.260;2.796;2023-03-01T12:53:21;8.87;;;7.70;;
48514;SDS011;34309;47.260;2.796;2023-03-01T12:55:58;8.20;;;7.50;;
48514;SDS011;34309;47.260;2.796;2023-03-01T12:58:38;7.77;;;6.47;;
48514;SDS011;34309;47.260;2.796;2023-03-01T13:01:18;6.73;;;6.00;;
48514;SDS011;34309;47.260;2.796;2023-03-01T13:04:05;14.03;;;6.63;;
48514;SDS011;34309;47.260;2.796;2023-03-01T13:06:47;11.00;;;7.57;;
48514;SDS011;34309;47.260;2.796;2023-03-01T13:09:34;9.13;;;6.73;;
48514;SDS011;34309;47.260;2.796;2023-03-01T13:15:32;11.10;;;5.73;;
48514;SDS011;34309;47.260;2.796;2023-03-01T13:21:03;7.00;;;5.67;;
48514;SDS011;34309;47.260;2.796;2023-03-01T13:23:37;6.33;;;5.63;;
48514;SDS011;34309;47.260;2.796;2023-03-01T13:26:14;4.63;;;4.17;;
48514;SDS011;34309;47.260;2.796;2023-03-01T13:28:52;7.80;;;6.87;;
48514;SDS011;34309;47.260;2.796;2023-03-01T13:37:32;7.83;;;5.30;;
48514;SDS011;34309;47.260;2.796;2023-03-01T13:43:27;18.57;;;9.43;;
48514;SDS011;34309;47.260;2.796;2023-03-01T13:46:07;24.27;;;15.53;;
48514;SDS011;34309;47.260;2.796;2023-03-01T13:48:49;25.73;;;14.23;;
48514;SDS011;34309;47.260;2.796;2023-03-01T13:51:25;28.33;;;15.83;;
48514;SDS011;34309;47.260;2.796;2023-03-01T13:54:00;21.07;;;15.67;;
48514;SDS011;34309;47.260;2.796;2023-03-01T13:56:35;23.37;;;13.50;;
48514;SDS011;34309;47.260;2.796;2023-03-01T13:59:13;27.77;;;14.83;;
48514;SDS011;34309;47.260;2.796;2023-03-01T14:01:51;18.23;;;13.40;;
48514;SDS011;34309;47.260;2.796;2023-03-01T14:04:28;21.63;;;13.97;;
48514;SDS011;34309;47.260;2.796;2023-03-01T14:07:10;21.50;;;13.07;;
48514;SDS011;34309;47.260;2.796;2023-03-01T14:09:45;19.50;;;15.23;;
48514;SDS011;34309;47.260;2.796;2023-03-01T14:12:26;22.57;;;13.17;;
48514;SDS011;34309;47.260;2.796;2023-03-01T14:15:15;20.80;;;13.53;;
48514;SDS011;34309;47.260;2.796;2023-03-01T14:17:55;21.43;;;14.13;;
48514;SDS011;34309;47.260;2.796;2023-03-01T14:20:39;18.83;;;13.07;;
48514;SDS011;34309;47.260;2.796;2023-03-01T14:23:15;31.27;;;14.23;;
48514;SDS011;34309;47.260;2.796;2023-03-01T14:25:51;18.00;;;11.97;;
48514;SDS011;34309;47.260;2.796;2023-03-01T14:28:28;17.53;;;14.03;;
48514;SDS011;34309;47.260;2.796;2023-03-01T14:34:16;20.20;;;14.53;;
48514;SDS011;34309;47.260;2.796;2023-03-01T14:36:54;22.83;;;14.33;;
48514;SDS011;34309;47.260;2.796;2023-03-01T14:39:28;27.53;;;16.33;;
48514;SDS011;34309;47.260;2.796;2023-03-01T14:42:01;27.67;;;16.13;;
48514;SDS011;34309;47.260;2.796;2023-03-01T14:44:40;29.30;;;19.40;;
48514;SDS011;34309;47.260;2.796;2023-03-01T14:47:25;26.73;;;20.37;;
48514;SDS011;34309;47.260;2.796;2023-03-01T14:50:01;32.00;;;19.77;;
48514;SDS011;34309;47.260;2.796;2023-03-01T14:52:40;37.13;;;23.20;;
48514;SDS011;34309;47.260;2.796;2023-03-01T14:55:18;38.73;;;24.27;;
48514;SDS011;34309;47.260;2.796;2023-03-01T14:57:54;34.03;;;23.67;;
48514;SDS011;34309;47.260;2.796;2023-03-01T15:00:30;48.67;;;28.17;;
48514;SDS011;34309;47.260;2.796;2023-03-01T15:03:07;44.47;;;26.70;;
48514;SDS011;34309;47.260;2.796;2023-03-01T15:05:50;57.07;;;28.73;;
48514;SDS011;34309;47.260;2.796;2023-03-01T15:08:27;53.60;;;28.17;;
48514;SDS011;34309;47.260;2.796;2023-03-01T15:11:04;43.60;;;27.07;;
48514;SDS011;34309;47.260;2.796;2023-03-01T15:13:50;44.73;;;28.60;;
48514;SDS011;34309;47.260;2.796;2023-03-01T15:16:26;44.03;;;25.40;;
48514;SDS011;34309;47.260;2.796;2023-03-01T15:19:02;35.47;;;23.63;;
48514;SDS011;34309;47.260;2.796;2023-03-01T15:21:38;38.07;;;24.90;;
48514;SDS011;34309;47.260;2.796;2023-03-01T15:24:17;31.97;;;21.70;;
48514;SDS011;34309;47.260;2.796;2023-03-01T15:26:55;30.17;;;21.03;;
48514;SDS011;34309;47.260;2.796;2023-03-01T15:29:33;32.70;;;20.13;;
48514;SDS011;34309;47.260;2.796;2023-03-01T15:32:23;40.80;;;22.47;;
48514;SDS011;34309;47.260;2.796;2023-03-01T15:35:32;30.63;;;21.93;;
48514;SDS011;34309;47.260;2.796;2023-03-01T15:41:23;32.87;;;20.00;;
48514;SDS011;34309;47.260;2.796;2023-03-01T15:43:58;29.70;;;21.20;;
48514;SDS011;34309;47.260;2.796;2023-03-01T15:46:34;34.17;;;21.60;;
48514;SDS011;34309;47.260;2.796;2023-03-01T15:49:04;35.90;;;23.70;;
48514;SDS011;34309;47.260;2.796;2023-03-01T15:51:51;42.53;;;29.83;;
48514;SDS011;34309;47.260;2.796;2023-03-01T15:54:27;39.93;;;24.80;;
48514;SDS011;34309;47.260;2.796;2023-03-01T15:57:02;31.43;;;20.50;;
48514;SDS011;34309;47.260;2.796;2023-03-01T15:59:36;37.10;;;24.00;;
48514;SDS011;34309;47.260;2.796;2023-03-01T16:02:10;37.40;;;23.13;;
48514;SDS011;34309;47.260;2.796;2023-03-01T16:04:45;32.60;;;22.97;;
48514;SDS011;34309;47.260;2.796;2023-03-01T16:07:18;34.20;;;24.53;;
48514;SDS011;34309;47.260;2.796;2023-03-01T16:09:52;41.97;;;27.80;;
48514;SDS011;34309;47.260;2.796;2023-03-01T16:12:27;41.00;;;27.90;;
48514;SDS011;34309;47.260;2.796;2023-03-01T16:15:01;54.47;;;31.60;;
48514;SDS011;34309;47.260;2.796;2023-03-01T16:17:34;62.30;;;34.73;;